Time;durP1;ratioP1;P1;durP2;ratioP2;P2;SDS_P1;SDS_P2;PMS_P1;PMS_P2;Temp;Humidity;BMP_temperature;BMP_pressure;BME280_temperature;BME280_humidity;BME280_pressure;Samples;Min_cycle;Max_cycle;Signal;HPM_P1;HPM_P2
2023/07/18 00:00:32;;;;;;;2.75;1.38;;;;;;;;;;6041957;23;20006;-86
2023/07/18 00:02:58;;;;;;;5.03;1.25;;;;;;;;;;6049032;23;20005;-84
2023/07/18 00:05:23;;;;;;;2.22;1.00;;;;;;;;;;6067122;23;20074;-83
2023/07/18 00:07:48;;;;;;;2.38;1.00;;;;;;;;;;6067170;23;20408;-84
2023/07/18 00:10:18;;;;;;;2.90;1.10;;;;;;;;;;6041093;23;20388;-84
2023/07/18 00:12:43;;;;;;;2.15;0.88;;;;;;;;;;6040973;23;20336;-84
2023/07/18 00:15:11;;;;;;;1.67;0.80;;;;;;;;;;6067479;23;20162;-83
2023/07/18 00:17:39;;;;;;;1.60;1.00;;;;;;;;;;6041329;23;20018;-84
2023/07/18 00:20:12;;;;;;;7.65;1.20;;;;;;;;;;6041340;23;20384;-84
2023/07/18 00:22:40;;;;;;;8.43;1.00;;;;;;;;;;6041445;23;20393;-84
2023/07/18 00:25:09;;;;;;;3.65;1.02;;;;;;;;;;6041458;23;19999;-84
2023/07/18 00:27:35;;;;;;;2.03;0.80;;;;;;;;;;6041557;23;20050;-84
2023/07/18 00:30:01;;;;;;;3.28;1.10;;;;;;;;;;6040910;23;20003;-84
2023/07/18 00:32:26;;;;;;;2.40;1.10;;;;;;;;;;6067123;23;20045;-84
2023/07/18 00:34:56;;;;;;;3.67;1.10;;;;;;;;;;6041829;23;19999;-83
2023/07/18 00:37:21;;;;;;;3.55;1.00;;;;;;;;;;6041333;23;20042;-83
2023/07/18 00:39:47;;;;;;;5.03;1.08;;;;;;;;;;6041835;23;20007;-84
2023/07/18 00:42:12;;;;;;;4.70;1.00;;;;;;;;;;6043293;23;20331;-84
2023/07/18 00:44:37;;;;;;;2.78;0.90;;;;;;;;;;6063253;23;20015;-84
2023/07/18 00:47:05;;;;;;;2.22;0.80;;;;;;;;;;6067194;23;19999;-83
2023/07/18 00:49:31;;;;;;;2.90;1.00;;;;;;;;;;6067167;23;20261;-83
2023/07/18 00:51:57;;;;;;;3.92;1.10;;;;;;;;;;6067332;23;20006;-83
2023/07/18 00:54:23;;;;;;;1.95;0.93;;;;;;;;;;6069151;23;20003;-83
2023/07/18 00:56:48;;;;;;;2.90;1.00;;;;;;;;;;6091573;23;20416;-83
2023/07/18 00:59:15;;;;;;;3.80;0.80;;;;;;;;;;6091071;23;20003;-83
2023/07/18 01:01:41;;;;;;;1.77;0.77;;;;;;;;;;6068474;23;19998;-82
2023/07/18 01:04:13;;;;;;;2.38;1.00;;;;;;;;;;6092084;23;20006;-83
2023/07/18 01:06:39;;;;;;;1.42;0.70;;;;;;;;;;6070839;23;20026;-84
2023/07/18 01:09:06;;;;;;;1.65;0.90;;;;;;;;;;6072873;23;20010;-83
2023/07/18 01:11:38;;;;;;;10.15;1.00;;;;;;;;;;6072134;23;19999;-83
2023/07/18 01:14:09;;;;;;;1.98;0.90;;;;;;;;;;6075655;23;20014;-86
2023/07/18 01:16:35;;;;;;;1.75;0.70;;;;;;;;;;6068800;23;20090;-86
2023/07/18 01:19:03;;;;;;;2.17;0.80;;;;;;;;;;6094234;23;19999;-86
2023/07/18 01:21:28;;;;;;;8.23;1.10;;;;;;;;;;6070506;23;20017;-86
2023/07/18 01:23:54;;;;;;;2.22;0.90;;;;;;;;;;6071605;23;19995;-86
2023/07/18 01:26:19;;;;;;;1.98;1.05;;;;;;;;;;6073088;23;20003;-86
2023/07/18 01:28:45;;;;;;;2.42;1.02;;;;;;;;;;6068850;23;19999;-86
2023/07/18 01:31:11;;;;;;;3.35;0.93;;;;;;;;;;6072920;23;20042;-86
2023/07/18 01:33:36;;;;;;;1.75;0.80;;;;;;;;;;6070138;23;20086;-86
2023/07/18 01:36:02;;;;;;;9.20;0.75;;;;;;;;;;6068371;23;20011;-86
2023/07/18 01:38:30;;;;;;;4.03;0.80;;;;;;;;;;6068481;23;20066;-86
2023/07/18 01:40:56;;;;;;;1.75;0.90;;;;;;;;;;6068033;23;20120;-86
2023/07/18 01:43:22;;;;;;;2.50;1.00;;;;;;;;;;6069398;23;20042;-86
2023/07/18 01:45:47;;;;;;;0.95;0.75;;;;;;;;;;6044241;23;20003;-85
2023/07/18 01:48:13;;;;;;;1.73;1.00;;;;;;;;;;6069402;23;20009;-85
2023/07/18 01:50:41;;;;;;;5.18;0.98;;;;;;;;;;6067906;23;20486;-86
2023/07/18 01:53:06;;;;;;;1.63;0.80;;;;;;;;;;6069358;23;20122;-85
2023/07/18 01:55:32;;;;;;;1.65;1.13;;;;;;;;;;6069649;23;20004;-86
2023/07/18 01:57:57;;;;;;;3.15;0.77;;;;;;;;;;6044228;23;20014;-86
2023/07/18 02:00:24;;;;;;;2.05;0.70;;;;;;;;;;6044313;23;20094;-85
2023/07/18 02:02:51;;;;;;;4.32;0.98;;;;;;;;;;6043896;23;20336;-85
2023/07/18 02:05:18;;;;;;;1.48;0.82;;;;;;;;;;6043726;23;20007;-85
2023/07/18 02:07:43;;;;;;;2.67;0.82;;;;;;;;;;6043749;23;20037;-85
2023/07/18 02:10:08;;;;;;;3.33;1.13;;;;;;;;;;6067566;23;19998;-85
2023/07/18 02:12:34;;;;;;;2.35;0.90;;;;;;;;;;6043595;23;20010;-85
2023/07/18 02:15:05;;;;;;;3.45;1.00;;;;;;;;;;6069307;23;20006;-85
2023/07/18 02:17:30;;;;;;;2.17;0.70;;;;;;;;;;6043565;23;20380;-85
2023/07/18 02:19:56;;;;;;;1.33;0.70;;;;;;;;;;6043625;23;19998;-85
2023/07/18 02:22:24;;;;;;;2.10;0.77;;;;;;;;;;6043764;23;20046;-85
2023/07/18 02:24:49;;;;;;;1.85;0.80;;;;;;;;;;6050002;23;20010;-85
2023/07/18 02:27:15;;;;;;;1.88;0.80;;;;;;;;;;6045770;23;20434;-85
2023/07/18 02:29:40;;;;;;;7.13;1.15;;;;;;;;;;6069959;23;19991;-85
2023/07/18 02:32:08;;;;;;;1.00;0.65;;;;;;;;;;6044328;23;20006;-85
2023/07/18 02:34:33;;;;;;;0.90;0.60;;;;;;;;;;6049970;23;20062;-85
2023/07/18 02:36:59;;;;;;;1.17;0.90;;;;;;;;;;6077788;23;20054;-85
2023/07/18 02:39:25;;;;;;;1.00;0.68;;;;;;;;;;6051603;23;20006;-85
2023/07/18 02:41:51;;;;;;;5.57;1.05;;;;;;;;;;6050260;23;20018;-86
2023/07/18 02:44:17;;;;;;;3.60;0.85;;;;;;;;;;6091115;23;20407;-84
2023/07/18 02:46:43;;;;;;;1.83;0.85;;;;;;;;;;6073866;23;19999;-84
2023/07/18 02:49:11;;;;;;;1.73;0.80;;;;;;;;;;6072607;23;19995;-84
2023/07/18 02:51:39;;;;;;;2.15;1.08;;;;;;;;;;6072281;23;20404;-84
2023/07/18 02:54:07;;;;;;;2.85;0.77;;;;;;;;;;6072105;23;20006;-83
2023/07/18 02:56:34;;;;;;;6.20;1.25;;;;;;;;;;6068910;23;19998;-84
2023/07/18 02:59:00;;;;;;;11.57;1.02;;;;;;;;;;6067080;23;19999;-83
2023/07/18 03:01:25;;;;;;;1.80;0.70;;;;;;;;;;6068275;23;19995;-84
2023/07/18 03:03:51;;;;;;;1.25;0.80;;;;;;;;;;6066068;23;20062;-84
2023/07/18 03:06:16;;;;;;;2.42;0.98;;;;;;;;;;6065862;23;20258;-83
2023/07/18 03:08:41;;;;;;;4.63;0.80;;;;;;;;;;6066573;23;20086;-84
2023/07/18 03:11:13;;;;;;;1.80;0.80;;;;;;;;;;6065963;23;20014;-84
2023/07/18 03:13:38;;;;;;;2.88;1.00;;;;;;;;;;6065566;23;20033;-84
2023/07/18 03:16:04;;;;;;;4.13;1.05;;;;;;;;;;6065654;23;20006;-84
2023/07/18 03:18:30;;;;;;;1.58;0.95;;;;;;;;;;6065706;23;20014;-83
2023/07/18 03:20:55;;;;;;;4.20;0.80;;;;;;;;;;6065737;23;20033;-84
2023/07/18 03:23:23;;;;;;;1.10;0.80;;;;;;;;;;6066032;23;20017;-84
2023/07/18 03:25:48;;;;;;;2.30;0.85;;;;;;;;;;6065467;23;20005;-83
2023/07/18 03:28:13;;;;;;;1.40;0.80;;;;;;;;;;6065907;23;20003;-83
2023/07/18 03:30:40;;;;;;;2.15;0.70;;;;;;;;;;6067467;23;20073;-84
2023/07/18 03:33:06;;;;;;;1.67;0.75;;;;;;;;;;6065896;23;20054;-83
2023/07/18 03:35:32;;;;;;;1.83;1.00;;;;;;;;;;6065219;23;20086;-84
2023/07/18 03:37:57;;;;;;;2.15;0.80;;;;;;;;;;6067626;23;20090;-84
2023/07/18 03:40:23;;;;;;;1.63;0.82;;;;;;;;;;6065797;23;20003;-84
2023/07/18 03:42:51;;;;;;;5.32;1.30;;;;;;;;;;6065701;23;20007;-83
2023/07/18 03:45:16;;;;;;;3.30;0.80;;;;;;;;;;6065733;23;20327;-83
2023/07/18 03:47:42;;;;;;;1.80;0.73;;;;;;;;;;6042003;23;20432;-83
2023/07/18 03:50:17;;;;;;;1.27;0.90;;;;;;;;;;6067512;23;20471;-83
2023/07/18 03:52:42;;;;;;;1.38;0.95;;;;;;;;;;6065831;23;20025;-83
2023/07/18 03:55:10;;;;;;;2.67;0.85;;;;;;;;;;6042393;23;20087;-84
2023/07/18 03:57:35;;;;;;;1.65;0.90;;;;;;;;;;6041811;23;20007;-83
2023/07/18 04:00:06;;;;;;;3.42;0.90;;;;;;;;;;6067577;23;20013;-84
2023/07/18 04:02:31;;;;;;;3.75;0.98;;;;;;;;;;6042482;23;20309;-84
2023/07/18 04:04:57;;;;;;;1.20;0.85;;;;;;;;;;6071638;23;19999;-84
2023/07/18 04:07:24;;;;;;;4.72;1.30;;;;;;;;;;6071039;23;20325;-84
2023/07/18 04:09:50;;;;;;;9.02;1.10;;;;;;;;;;6071347;23;19999;-84
2023/07/18 04:12:18;;;;;;;2.97;0.95;;;;;;;;;;6044687;23;20027;-84
2023/07/18 04:14:44;;;;;;;1.42;0.85;;;;;;;;;;6048045;23;20003;-83
2023/07/18 04:17:10;;;;;;;3.17;0.85;;;;;;;;;;6052323;23;20054;-84
2023/07/18 04:19:44;;;;;;;5.10;0.80;;;;;;;;;;6050756;23;20308;-84
2023/07/18 04:22:13;;;;;;;2.88;1.25;;;;;;;;;;6078096;23;20306;-84
2023/07/18 04:24:41;;;;;;;2.38;1.10;;;;;;;;;;6077884;23;20005;-84
2023/07/18 04:27:06;;;;;;;3.03;1.05;;;;;;;;;;6044234;23;20423;-84
2023/07/18 04:29:32;;;;;;;3.22;1.10;;;;;;;;;;6068010;23;19998;-84
2023/07/18 04:31:57;;;;;;;9.40;0.90;;;;;;;;;;6043936;23;20056;-83
2023/07/18 04:34:24;;;;;;;5.93;1.00;;;;;;;;;;6043582;23;20010;-84
2023/07/18 04:36:49;;;;;;;4.20;1.63;;;;;;;;;;6042827;23;20375;-84
2023/07/18 04:39:14;;;;;;;2.85;1.00;;;;;;;;;;6043384;23;20412;-84
2023/07/18 04:41:39;;;;;;;2.33;0.93;;;;;;;;;;6043318;23;20030;-84
2023/07/18 04:44:05;;;;;;;4.22;1.02;;;;;;;;;;6068853;23;20054;-84
2023/07/18 04:46:30;;;;;;;1.98;1.25;;;;;;;;;;6043207;23;20010;-84
2023/07/18 04:48:55;;;;;;;3.67;1.05;;;;;;;;;;6043262;23;19999;-83
2023/07/18 04:51:21;;;;;;;2.08;1.00;;;;;;;;;;6066807;23;20119;-83
2023/07/18 04:53:46;;;;;;;4.05;1.25;;;;;;;;;;6069021;23;20068;-83
2023/07/18 04:56:11;;;;;;;1.73;0.80;;;;;;;;;;6043205;23;20007;-84
2023/07/18 04:58:36;;;;;;;2.03;0.90;;;;;;;;;;6043341;23;20070;-84
2023/07/18 05:01:02;;;;;;;1.70;1.10;;;;;;;;;;6043210;23;20007;-83
2023/07/18 05:03:27;;;;;;;1.90;1.00;;;;;;;;;;6043286;23;20085;-83
2023/07/18 05:05:53;;;;;;;2.53;1.10;;;;;;;;;;6043237;23;19999;-83
2023/07/18 05:08:18;;;;;;;2.92;1.10;;;;;;;;;;6068674;23;20081;-84
2023/07/18 05:10:46;;;;;;;2.80;1.20;;;;;;;;;;6066824;23;19995;-84
2023/07/18 05:13:17;;;;;;;4.10;1.20;;;;;;;;;;6068651;23;20327;-83
2023/07/18 05:15:44;;;;;;;7.55;1.50;;;;;;;;;;6068589;23;19999;-83
2023/07/18 05:18:10;;;;;;;6.13;1.20;;;;;;;;;;6068478;23;19999;-83
2023/07/18 05:20:35;;;;;;;5.78;0.88;;;;;;;;;;6068682;23;20010;-83
2023/07/18 05:23:01;;;;;;;3.67;1.30;;;;;;;;;;6068408;23;19999;-83
2023/07/18 05:25:29;;;;;;;2.42;1.30;;;;;;;;;;6043296;23;20014;-83
2023/07/18 05:27:56;;;;;;;2.67;1.13;;;;;;;;;;6042830;23;20372;-83
2023/07/18 05:30:21;;;;;;;1.67;1.08;;;;;;;;;;6068900;23;20054;-83
2023/07/18 05:32:50;;;;;;;6.22;1.60;;;;;;;;;;6069687;23;20038;-83
2023/07/18 05:35:15;;;;;;;5.25;1.15;;;;;;;;;;6045962;23;20047;-83
2023/07/18 05:37:41;;;;;;;3.88;1.08;;;;;;;;;;6072740;23;20102;-83
2023/07/18 05:40:10;;;;;;;4.65;0.95;;;;;;;;;;6046717;23;20003;-83
2023/07/18 05:42:35;;;;;;;1.67;1.00;;;;;;;;;;6072253;23;20026;-84
2023/07/18 05:45:01;;;;;;;3.03;1.25;;;;;;;;;;6046325;23;20029;-83
2023/07/18 05:47:27;;;;;;;2.13;1.23;;;;;;;;;;6053873;23;20022;-83
2023/07/18 05:49:53;;;;;;;4.82;1.30;;;;;;;;;;6050496;23;20007;-83
2023/07/18 05:52:19;;;;;;;6.20;1.38;;;;;;;;;;6049071;23;20005;-83
2023/07/18 05:54:45;;;;;;;4.28;1.27;;;;;;;;;;6054778;23;20014;-83
2023/07/18 05:57:14;;;;;;;2.08;1.02;;;;;;;;;;6045970;23;19998;-83
2023/07/18 05:59:42;;;;;;;4.10;1.58;;;;;;;;;;6044475;23;20023;-83
2023/07/18 06:02:08;;;;;;;5.53;1.50;;;;;;;;;;6048969;23;20059;-83
2023/07/18 06:04:35;;;;;;;12.32;1.55;;;;;;;;;;6042418;23;20006;-84
2023/07/18 06:07:00;;;;;;;12.85;1.65;;;;;;;;;;6067929;23;20045;-83
2023/07/18 06:09:28;;;;;;;2.33;1.13;;;;;;;;;;6042524;23;20086;-83
2023/07/18 06:11:54;;;;;;;3.72;1.15;;;;;;;;;;6042367;23;20005;-83
2023/07/18 06:14:19;;;;;;;2.85;1.35;;;;;;;;;;6067877;23;20019;-83
2023/07/18 06:16:45;;;;;;;7.55;1.65;;;;;;;;;;6042408;23;20006;-83
2023/07/18 06:19:13;;;;;;;9.52;1.60;;;;;;;;;;6042184;23;20051;-84
2023/07/18 06:21:39;;;;;;;5.95;1.27;;;;;;;;;;6042145;23;20014;-82
2023/07/18 06:24:07;;;;;;;3.08;1.23;;;;;;;;;;6042605;23;20007;-83
2023/07/18 06:26:33;;;;;;;1.85;1.17;;;;;;;;;;6066295;23;20331;-83
2023/07/18 06:28:58;;;;;;;3.05;1.40;;;;;;;;;;6065886;23;20094;-83
2023/07/18 06:31:23;;;;;;;5.60;1.55;;;;;;;;;;6042241;23;19999;-83
2023/07/18 06:33:48;;;;;;;1.92;1.15;;;;;;;;;;6042336;23;20041;-83
2023/07/18 06:36:15;;;;;;;4.45;1.10;;;;;;;;;;6042349;23;20009;-84
2023/07/18 06:38:41;;;;;;;9.65;1.40;;;;;;;;;;6041680;23;20042;-83
2023/07/18 06:41:06;;;;;;;2.72;0.98;;;;;;;;;;6042357;23;20082;-83
2023/07/18 06:43:32;;;;;;;5.45;1.20;;;;;;;;;;6048160;23;20097;-83
2023/07/18 06:45:57;;;;;;;4.68;1.00;;;;;;;;;;6064945;23;20030;-82
2023/07/18 06:48:28;;;;;;;3.35;0.82;;;;;;;;;;6065291;23;20002;-84
2023/07/18 06:50:59;;;;;;;3.47;1.10;;;;;;;;;;6066788;23;20007;-83
2023/07/18 06:53:25;;;;;;;5.43;0.85;;;;;;;;;;6065779;23;20006;-83
2023/07/18 06:55:54;;;;;;;4.05;1.17;;;;;;;;;;6067447;23;20003;-83
2023/07/18 06:58:20;;;;;;;1.27;0.70;;;;;;;;;;6072013;23;20057;-83
2023/07/18 07:00:46;;;;;;;1.67;0.88;;;;;;;;;;6068282;23;20003;-83
2023/07/18 07:03:12;;;;;;;2.95;0.85;;;;;;;;;;6066773;23;20006;-83
2023/07/18 07:05:38;;;;;;;2.38;0.73;;;;;;;;;;6066420;23;19999;-83
2023/07/18 07:08:04;;;;;;;2.58;0.80;;;;;;;;;;6069034;23;20006;-84
2023/07/18 07:10:35;;;;;;;5.18;0.90;;;;;;;;;;6077823;23;20091;-83
2023/07/18 07:13:04;;;;;;;2.10;0.70;;;;;;;;;;6076589;23;19995;-83
2023/07/18 07:15:30;;;;;;;4.03;0.77;;;;;;;;;;6075820;23;19995;-83
2023/07/18 07:18:02;;;;;;;3.38;0.73;;;;;;;;;;6071371;23;20017;-84
2023/07/18 07:20:28;;;;;;;;;;;;;;;;;;6096780;23;20009;-83
2023/07/18 07:22:54;;;;;;;4.18;0.85;;;;;;;;;;6102196;23;19904;-84
2023/07/18 07:25:20;;;;;;;6.60;0.70;;;;;;;;;;6073677;23;20026;-83
2023/07/18 07:27:46;;;;;;;1.13;0.52;;;;;;;;;;6072619;23;20022;-83
2023/07/18 07:30:18;;;;;;;4.88;0.63;;;;;;;;;;6072323;23;20003;-82
2023/07/18 07:32:56;;;;;;;0.68;0.52;;;;;;;;;;6091282;23;20002;-83
2023/07/18 07:35:28;;;;;;;0.77;0.40;;;;;;;;;;6068014;23;20003;-82
2023/07/18 07:37:56;;;;;;;1.75;0.60;;;;;;;;;;6070104;23;20070;-83
2023/07/18 07:40:21;;;;;;;3.20;0.65;;;;;;;;;;6066759;23;20372;-82
2023/07/18 07:42:47;;;;;;;1.33;0.47;;;;;;;;;;6064855;23;20021;-82
2023/07/18 07:45:13;;;;;;;1.48;0.70;;;;;;;;;;6066299;23;20010;-83
2023/07/18 07:47:38;;;;;;;1.77;0.68;;;;;;;;;;6041119;23;20009;-82
2023/07/18 07:50:04;;;;;;;0.85;0.32;;;;;;;;;;6041705;23;20031;-82
2023/07/18 07:52:30;;;;;;;0.47;0.20;;;;;;;;;;6065405;23;19999;-83
2023/07/18 07:54:55;;;;;;;2.50;0.30;;;;;;;;;;6041741;23;20007;-84
2023/07/18 07:57:21;;;;;;;1.95;0.30;;;;;;;;;;6040726;23;20037;-82
2023/07/18 07:59:47;;;;;;;1.70;0.50;;;;;;;;;;6066502;23;20148;-81
2023/07/18 08:02:13;;;;;;;1.42;0.50;;;;;;;;;;6036905;23;20358;-81
2023/07/18 08:04:39;;;;;;;0.73;0.32;;;;;;;;;;6064983;23;19999;-82
2023/07/18 08:07:04;;;;;;;3.67;0.50;;;;;;;;;;6040488;23;20009;-82
2023/07/18 08:09:30;;;;;;;4.55;0.50;;;;;;;;;;6066145;23;19998;-83
2023/07/18 08:11:55;;;;;;;4.18;0.30;;;;;;;;;;6040344;23;20011;-81
2023/07/18 08:14:21;;;;;;;1.63;0.38;;;;;;;;;;6039693;23;20002;-82
2023/07/18 08:16:47;;;;;;;1.55;0.40;;;;;;;;;;6038338;23;20018;-82
2023/07/18 08:19:12;;;;;;;2.22;0.38;;;;;;;;;;6063412;23;20010;-82
2023/07/18 08:21:37;;;;;;;1.85;0.20;;;;;;;;;;6040594;23;20009;-82
2023/07/18 08:24:03;;;;;;;1.70;0.40;;;;;;;;;;6040813;23;20042;-82
2023/07/18 08:26:28;;;;;;;1.17;0.50;;;;;;;;;;6040529;23;20003;-82
2023/07/18 08:29:01;;;;;;;1.10;0.20;;;;;;;;;;6040776;23;20094;-81
2023/07/18 08:31:26;;;;;;;0.50;0.20;;;;;;;;;;6041028;23;20007;-82
2023/07/18 08:33:54;;;;;;;1.10;0.30;;;;;;;;;;6066058;23;20027;-81
2023/07/18 08:36:19;;;;;;;0.65;0.20;;;;;;;;;;6043287;23;20014;-82
2023/07/18 08:38:49;;;;;;;0.85;0.30;;;;;;;;;;6043301;23;20007;-82
2023/07/18 08:41:15;;;;;;;1.90;0.30;;;;;;;;;;6041609;23;20284;-82
2023/07/18 08:43:40;;;;;;;0.98;0.30;;;;;;;;;;6067210;23;20137;-81
2023/07/18 08:46:07;;;;;;;2.13;0.30;;;;;;;;;;6042950;23;20018;-82
2023/07/18 08:48:33;;;;;;;0.30;0.20;;;;;;;;;;6050408;23;20058;-82
2023/07/18 08:50:58;;;;;;;2.92;0.38;;;;;;;;;;6048255;23;20006;-81
2023/07/18 08:53:24;;;;;;;1.50;0.38;;;;;;;;;;6044400;23;20021;-82
2023/07/18 08:55:50;;;;;;;0.60;0.20;;;;;;;;;;6069940;23;20329;-82
2023/07/18 08:58:22;;;;;;;1.60;0.20;;;;;;;;;;6050308;23;20006;-82
2023/07/18 09:00:47;;;;;;;0.15;0.15;;;;;;;;;;6050426;23;20006;-85
2023/07/18 09:03:14;;;;;;;1.30;0.30;;;;;;;;;;6054930;23;20098;-85
2023/07/18 09:05:40;;;;;;;2.85;0.30;;;;;;;;;;6070484;23;20037;-85
2023/07/18 09:08:06;;;;;;;1.05;0.30;;;;;;;;;;6054981;23;20002;-82
2023/07/18 09:10:32;;;;;;;0.90;0.20;;;;;;;;;;6074479;23;20022;-85
2023/07/18 09:13:02;;;;;;;1.73;0.40;;;;;;;;;;6044279;23;20439;-85
2023/07/18 09:15:27;;;;;;;0.52;0.30;;;;;;;;;;6072610;23;20502;-86
2023/07/18 09:17:53;;;;;;;0.63;0.30;;;;;;;;;;6072945;23;19998;-86
2023/07/18 09:20:18;;;;;;;0.80;0.30;;;;;;;;;;6043714;23;20149;-86
2023/07/18 09:22:44;;;;;;;3.35;0.20;;;;;;;;;;6068798;23;20055;-86
2023/07/18 09:25:13;;;;;;;2.45;0.30;;;;;;;;;;6042914;23;20085;-86
2023/07/18 09:27:38;;;;;;;3.40;0.43;;;;;;;;;;6042770;23;19998;-86
2023/07/18 09:30:04;;;;;;;1.08;0.20;;;;;;;;;;6064539;23;20046;-85
2023/07/18 09:32:29;;;;;;;0.73;0.15;;;;;;;;;;6042270;23;20002;-86
2023/07/18 09:34:55;;;;;;;0.55;0.20;;;;;;;;;;6043853;23;20007;-87
2023/07/18 09:37:20;;;;;;;2.45;0.30;;;;;;;;;;6043901;23;20002;-87
2023/07/18 09:39:46;;;;;;;2.45;0.40;;;;;;;;;;6043583;23;20010;-87
2023/07/18 09:42:12;;;;;;;1.75;0.20;;;;;;;;;;6044021;23;20007;-87
2023/07/18 09:44:39;;;;;;;2.70;0.38;;;;;;;;;;6063585;23;20454;-86
2023/07/18 09:47:05;;;;;;;1.83;0.38;;;;;;;;;;6091513;23;19995;-87
2023/07/18 09:49:30;;;;;;;1.88;0.30;;;;;;;;;;6091952;23;20014;-87
2023/07/18 09:52:01;;;;;;;0.38;0.20;;;;;;;;;;6067814;23;19999;-86
2023/07/18 09:54:27;;;;;;;0.40;0.20;;;;;;;;;;6067558;23;20009;-87
2023/07/18 09:56:57;;;;;;;0.40;0.15;;;;;;;;;;6069132;23;19999;-87
2023/07/18 09:59:23;;;;;;;0.40;0.20;;;;;;;;;;6091569;23;20013;-86
2023/07/18 10:01:51;;;;;;;0.22;0.20;;;;;;;;;;6069014;23;20000;-87
2023/07/18 10:04:18;;;;;;;1.00;0.20;;;;;;;;;;6069039;23;20086;-87
2023/07/18 10:06:44;;;;;;;2.47;0.40;;;;;;;;;;6066871;23;20399;-87
2023/07/18 10:09:09;;;;;;;1.98;0.30;;;;;;;;;;6068750;23;20006;-87
2023/07/18 10:12:04;;;;;;;0.52;0.30;;;;;;;;;;6069058;23;20005;-87
2023/07/18 10:14:33;;;;;;;0.43;0.20;;;;;;;;;;6050388;23;20361;-87
2023/07/18 10:17:05;;;;;;;2.70;0.40;;;;;;;;;;6069103;23;20380;-87
2023/07/18 10:19:44;;;;;;;2.63;0.30;;;;;;;;;;6091912;23;19999;-87
2023/07/18 10:22:10;;;;;;;0.17;0.17;;;;;;;;;;6069753;23;20273;-87
2023/07/18 10:24:36;;;;;;;2.33;0.43;;;;;;;;;;6074530;23;20018;-83
2023/07/18 10:27:08;;;;;;;0.47;0.20;;;;;;;;;;6072633;23;20390;-83
2023/07/18 10:29:34;;;;;;;;;;;;;;;;;;6068730;23;20022;-82
2023/07/18 10:32:00;;;;;;;2.53;0.47;;;;;;;;;;6093347;23;19913;-83
2023/07/18 10:34:25;;;;;;;2.17;0.40;;;;;;;;;;6096242;23;20372;-83
2023/07/18 10:36:54;;;;;;;1.40;0.30;;;;;;;;;;6067128;23;19995;-83
2023/07/18 10:39:34;;;;;;;2.40;0.43;;;;;;;;;;6068087;23;19995;-83
2023/07/18 10:42:04;;;;;;;4.65;0.30;;;;;;;;;;6066976;23;20408;-82
2023/07/18 10:44:30;;;;;;;5.80;0.40;;;;;;;;;;6068319;23;20082;-83
2023/07/18 10:46:55;;;;;;;0.50;0.20;;;;;;;;;;6042007;23;19999;-83
2023/07/18 10:49:25;;;;;;;0.30;0.30;;;;;;;;;;6042979;23;19999;-83
2023/07/18 10:51:53;;;;;;;1.00;0.20;;;;;;;;;;6067839;23;19999;-83
2023/07/18 10:54:18;;;;;;;1.75;0.32;;;;;;;;;;6040829;23;20027;-83
2023/07/18 10:56:44;;;;;;;1.15;0.30;;;;;;;;;;6040935;23;20002;-83
2023/07/18 10:59:11;;;;;;;1.23;0.40;;;;;;;;;;6041097;23;20089;-84
2023/07/18 11:01:40;;;;;;;4.90;0.35;;;;;;;;;;6066693;23;20320;-84
2023/07/18 11:04:06;;;;;;;1.98;0.43;;;;;;;;;;6041530;23;20061;-83
2023/07/18 11:06:31;;;;;;;1.48;0.50;;;;;;;;;;6067220;23;20030;-83
2023/07/18 11:08:56;;;;;;;0.75;0.30;;;;;;;;;;6066281;23;20001;-84
2023/07/18 11:11:21;;;;;;;5.65;0.30;;;;;;;;;;6041500;23;20058;-83
2023/07/18 11:13:47;;;;;;;1.52;0.30;;;;;;;;;;6041274;23;20002;-83
2023/07/18 11:16:14;;;;;;;1.65;0.50;;;;;;;;;;6067009;23;20010;-83
2023/07/18 11:18:41;;;;;;;1.52;0.20;;;;;;;;;;6067234;23;20003;-84
2023/07/18 11:21:07;;;;;;;1.23;0.50;;;;;;;;;;6041760;23;20385;-84
2023/07/18 11:23:34;;;;;;;7.03;0.50;;;;;;;;;;6041326;23;20427;-84
2023/07/18 11:25:59;;;;;;;1.48;0.35;;;;;;;;;;6041051;23;20041;-84
2023/07/18 11:28:28;;;;;;;2.88;0.50;;;;;;;;;;6067002;23;20003;-84
2023/07/18 11:30:54;;;;;;;1.52;0.40;;;;;;;;;;6041398;23;20120;-84
2023/07/18 11:33:22;;;;;;;1.60;0.60;;;;;;;;;;6041304;23;19995;-84
2023/07/18 11:35:48;;;;;;;2.92;0.40;;;;;;;;;;6066936;23;20003;-83
2023/07/18 11:38:17;;;;;;;5.60;0.40;;;;;;;;;;6041536;23;20030;-84
2023/07/18 11:40:45;;;;;;;1.15;0.47;;;;;;;;;;6066970;23;20341;-84
2023/07/18 11:43:17;;;;;;;2.90;0.73;;;;;;;;;;6043743;23;20323;-83
2023/07/18 11:45:43;;;;;;;0.82;0.40;;;;;;;;;;6066232;23;20013;-84
2023/07/18 11:48:11;;;;;;;4.25;0.60;;;;;;;;;;6064753;23;20044;-83
2023/07/18 11:50:44;;;;;;;1.30;0.50;;;;;;;;;;6065179;23;20376;-83
2023/07/18 11:53:10;;;;;;;1.13;0.43;;;;;;;;;;6089155;23;20003;-84
2023/07/18 11:55:35;;;;;;;2.63;0.70;;;;;;;;;;6065058;23;20019;-83
2023/07/18 11:58:01;;;;;;;1.15;0.40;;;;;;;;;;6064452;23;20007;-83
2023/07/18 12:00:27;;;;;;;2.28;0.70;;;;;;;;;;6064604;23;20003;-84
2023/07/18 12:02:52;;;;;;;1.65;0.65;;;;;;;;;;6064894;23;20014;-84
2023/07/18 12:05:17;;;;;;;3.40;0.85;;;;;;;;;;6066814;23;20214;-84
2023/07/18 12:07:44;;;;;;;2.70;0.65;;;;;;;;;;6072260;23;19998;-84
2023/07/18 12:10:10;;;;;;;2.55;0.77;;;;;;;;;;6092048;23;20003;-84
2023/07/18 12:12:39;;;;;;;2.78;0.73;;;;;;;;;;6065373;23;20054;-84
2023/07/18 12:15:05;;;;;;;1.83;0.60;;;;;;;;;;6065563;23;20013;-84
2023/07/18 12:17:30;;;;;;;1.67;0.85;;;;;;;;;;6064918;23;20011;-84
2023/07/18 12:19:55;;;;;;;4.00;0.70;;;;;;;;;;6065907;23;20412;-84
2023/07/18 12:22:21;;;;;;;1.85;0.80;;;;;;;;;;6066569;23;19999;-84
2023/07/18 12:24:47;;;;;;;6.72;1.00;;;;;;;;;;6065394;23;20010;-83
2023/07/18 12:27:12;;;;;;;2.03;0.60;;;;;;;;;;6064119;23;20010;-83
2023/07/18 12:29:38;;;;;;;3.08;0.88;;;;;;;;;;6066769;23;20003;-83
2023/07/18 12:32:04;;;;;;;1.60;0.55;;;;;;;;;;6063989;23;20420;-83
2023/07/18 12:34:29;;;;;;;2.92;1.40;;;;;;;;;;6066376;23;20006;-84
2023/07/18 12:36:54;;;;;;;5.57;0.65;;;;;;;;;;6066535;23;20058;-84
2023/07/18 12:39:19;;;;;;;1.63;0.70;;;;;;;;;;6067669;23;19999;-84
2023/07/18 12:41:45;;;;;;;1.77;0.70;;;;;;;;;;6090357;23;20033;-84
2023/07/18 12:44:17;;;;;;;1.48;0.80;;;;;;;;;;6066175;23;20424;-83
2023/07/18 12:46:42;;;;;;;0.85;0.57;;;;;;;;;;6066522;23;20067;-83
2023/07/18 12:49:09;;;;;;;1.40;0.80;;;;;;;;;;6067129;23;20015;-84
2023/07/18 12:51:34;;;;;;;1.50;0.90;;;;;;;;;;6068405;23;20424;-83
2023/07/18 12:53:59;;;;;;;2.10;0.60;;;;;;;;;;6065806;23;20003;-84
2023/07/18 12:56:25;;;;;;;3.47;0.80;;;;;;;;;;6065225;23;20013;-84
2023/07/18 12:58:51;;;;;;;2.38;0.88;;;;;;;;;;6066486;23;20102;-84
2023/07/18 13:01:17;;;;;;;3.80;1.25;;;;;;;;;;6063491;23;20003;-83
2023/07/18 13:03:42;;;;;;;2.65;0.60;;;;;;;;;;6065948;23;20017;-84
2023/07/18 13:06:08;;;;;;;3.10;0.80;;;;;;;;;;6066566;23;20010;-84
2023/07/18 13:08:33;;;;;;;3.33;1.00;;;;;;;;;;6066737;23;20003;-84
2023/07/18 13:10:58;;;;;;;3.38;0.65;;;;;;;;;;6090572;23;20035;-83
2023/07/18 13:13:24;;;;;;;3.78;0.98;;;;;;;;;;6065822;23;19999;-84
2023/07/18 13:15:49;;;;;;;3.88;1.00;;;;;;;;;;6066492;23;19999;-83
2023/07/18 13:18:14;;;;;;;2.83;0.85;;;;;;;;;;6090308;23;20145;-83
2023/07/18 13:20:40;;;;;;;2.80;0.85;;;;;;;;;;6090411;23;20002;-83
2023/07/18 13:23:05;;;;;;;3.38;0.90;;;;;;;;;;6068183;23;20423;-83
2023/07/18 13:25:31;;;;;;;2.00;0.95;;;;;;;;;;6068122;23;20009;-82
2023/07/18 13:27:59;;;;;;;3.45;1.00;;;;;;;;;;6066207;23;20090;-82
2023/07/18 13:30:24;;;;;;;2.80;1.00;;;;;;;;;;6090816;23;20151;-83
2023/07/18 13:32:50;;;;;;;1.85;0.60;;;;;;;;;;6066747;23;20007;-83
2023/07/18 13:35:15;;;;;;;1.63;0.73;;;;;;;;;;6066413;23;20007;-83
2023/07/18 13:37:40;;;;;;;5.72;0.90;;;;;;;;;;6065774;23;19999;-82
2023/07/18 13:40:06;;;;;;;2.35;0.90;;;;;;;;;;6066421;23;20014;-82
2023/07/18 13:42:31;;;;;;;2.00;0.82;;;;;;;;;;6070021;23;20381;-83
2023/07/18 13:44:57;;;;;;;1.00;0.50;;;;;;;;;;6091639;23;20535;-85
2023/07/18 13:47:22;;;;;;;3.70;1.23;;;;;;;;;;6068397;23;20002;-86
2023/07/18 13:49:50;;;;;;;2.05;1.00;;;;;;;;;;6067060;23;20089;-85
2023/07/18 13:52:15;;;;;;;2.65;0.60;;;;;;;;;;6067788;23;20320;-85
2023/07/18 13:54:43;;;;;;;2.83;1.00;;;;;;;;;;6067106;23;20010;-84
2023/07/18 13:57:08;;;;;;;2.70;0.80;;;;;;;;;;6066531;23;20326;-83
2023/07/18 13:59:33;;;;;;;2.95;0.70;;;;;;;;;;6066783;23;20083;-84
2023/07/18 14:01:59;;;;;;;1.83;0.70;;;;;;;;;;6066702;23;20317;-85
2023/07/18 14:04:24;;;;;;;2.42;0.82;;;;;;;;;;6090043;23;20068;-85
2023/07/18 14:06:50;;;;;;;3.65;0.75;;;;;;;;;;6090805;23;20031;-85
2023/07/18 14:09:15;;;;;;;1.88;0.90;;;;;;;;;;6089807;23;20007;-84
2023/07/18 14:11:40;;;;;;;2.03;0.90;;;;;;;;;;6067648;23;19999;-84
2023/07/18 14:14:08;;;;;;;3.72;0.88;;;;;;;;;;6068224;23;19999;-85
2023/07/18 14:16:34;;;;;;;1.40;0.70;;;;;;;;;;6066224;23;20095;-85
2023/07/18 14:19:01;;;;;;;1.30;0.68;;;;;;;;;;6066514;23;20006;-85
2023/07/18 14:21:27;;;;;;;1.98;0.90;;;;;;;;;;6068413;23;20003;-84
2023/07/18 14:23:52;;;;;;;2.08;0.77;;;;;;;;;;6066622;23;20456;-85
2023/07/18 14:26:17;;;;;;;1.33;0.70;;;;;;;;;;6066388;23;20445;-85
2023/07/18 14:28:42;;;;;;;2.10;0.70;;;;;;;;;;6066461;23;20158;-84
2023/07/18 14:31:08;;;;;;;2.40;0.60;;;;;;;;;;6067571;23;20050;-84
2023/07/18 14:33:34;;;;;;;1.33;0.60;;;;;;;;;;6090149;23;20457;-84
2023/07/18 14:35:59;;;;;;;1.98;0.85;;;;;;;;;;6066396;23;20018;-85
2023/07/18 14:38:25;;;;;;;4.75;1.13;;;;;;;;;;6066308;23;19998;-85